sensor_id;sensor_type;location;lat;lon;timestamp;P1;durP1;ratioP1;P2;durP2;ratioP2
15307;SDS011;7755;52.208;6.964;2023-06-14T00:00:51;4.60;;;3.10;;
15307;SDS011;7755;52.208;6.964;2023-06-14T00:04:56;3.80;;;3.40;;
15307;SDS011;7755;52.208;6.964;2023-06-14T00:09:01;3.23;;;2.93;;
15307;SDS011;7755;52.208;6.964;2023-06-14T00:13:05;3.77;;;3.33;;
15307;SDS011;7755;52.208;6.964;2023-06-14T00:17:08;3.37;;;3.07;;
15307;SDS011;7755;52.208;6.964;2023-06-14T00:21:11;4.40;;;3.17;;
15307;SDS011;7755;52.208;6.964;2023-06-14T00:25:14;2.93;;;2.73;;
15307;SDS011;7755;52.208;6.964;2023-06-14T00:29:32;3.97;;;3.10;;
15307;SDS011;7755;52.208;6.964;2023-06-14T00:33:39;4.87;;;3.63;;
15307;SDS011;7755;52.208;6.964;2023-06-14T00:37:42;3.60;;;3.30;;
15307;SDS011;7755;52.208;6.964;2023-06-14T00:41:45;4.10;;;3.40;;
15307;SDS011;7755;52.208;6.964;2023-06-14T00:45:49;3.20;;;2.90;;
15307;SDS011;7755;52.208;6.964;2023-06-14T00:49:53;3.03;;;2.77;;
15307;SDS011;7755;52.208;6.964;2023-06-14T00:53:57;4.53;;;3.00;;
15307;SDS011;7755;52.208;6.964;2023-06-14T00:58:00;3.33;;;2.93;;
15307;SDS011;7755;52.208;6.964;2023-06-14T01:02:05;6.07;;;3.20;;
15307;SDS011;7755;52.208;6.964;2023-06-14T01:06:12;3.13;;;2.80;;
15307;SDS011;7755;52.208;6.964;2023-06-14T01:10:33;3.07;;;2.87;;
15307;SDS011;7755;52.208;6.964;2023-06-14T01:14:45;3.07;;;2.87;;
15307;SDS011;7755;52.208;6.964;2023-06-14T01:18:54;7.73;;;3.17;;
15307;SDS011;7755;52.208;6.964;2023-06-14T01:23:00;4.60;;;3.07;;
15307;SDS011;7755;52.208;6.964;2023-06-14T01:27:05;3.20;;;2.93;;
15307;SDS011;7755;52.208;6.964;2023-06-14T01:31:09;3.60;;;3.30;;
15307;SDS011;7755;52.208;6.964;2023-06-14T01:35:14;3.17;;;2.90;;
15307;SDS011;7755;52.208;6.964;2023-06-14T01:39:18;3.63;;;2.80;;
15307;SDS011;7755;52.208;6.964;2023-06-14T01:43:22;3.50;;;3.20;;
15307;SDS011;7755;52.208;6.964;2023-06-14T01:47:26;5.70;;;3.10;;
15307;SDS011;7755;52.208;6.964;2023-06-14T01:51:29;3.17;;;2.97;;
15307;SDS011;7755;52.208;6.964;2023-06-14T01:55:33;3.50;;;3.20;;
15307;SDS011;7755;52.208;6.964;2023-06-14T01:59:40;5.10;;;2.97;;
15307;SDS011;7755;52.208;6.964;2023-06-14T02:03:43;4.50;;;3.13;;
15307;SDS011;7755;52.208;6.964;2023-06-14T02:07:50;3.23;;;2.93;;
15307;SDS011;7755;52.208;6.964;2023-06-14T02:11:54;4.67;;;2.93;;
15307;SDS011;7755;52.208;6.964;2023-06-14T02:15:57;3.67;;;3.37;;
15307;SDS011;7755;52.208;6.964;2023-06-14T02:20:02;3.10;;;2.80;;
15307;SDS011;7755;52.208;6.964;2023-06-14T02:24:07;3.77;;;3.10;;
15307;SDS011;7755;52.208;6.964;2023-06-14T02:28:11;3.40;;;3.17;;
15307;SDS011;7755;52.208;6.964;2023-06-14T02:32:14;3.97;;;3.27;;
15307;SDS011;7755;52.208;6.964;2023-06-14T02:36:17;3.50;;;3.20;;
15307;SDS011;7755;52.208;6.964;2023-06-14T02:40:20;3.60;;;3.30;;
15307;SDS011;7755;52.208;6.964;2023-06-14T02:44:25;3.47;;;3.17;;
15307;SDS011;7755;52.208;6.964;2023-06-14T02:48:29;3.60;;;3.10;;
15307;SDS011;7755;52.208;6.964;2023-06-14T02:52:32;3.27;;;2.93;;
15307;SDS011;7755;52.208;6.964;2023-06-14T02:56:36;3.87;;;2.97;;
15307;SDS011;7755;52.208;6.964;2023-06-14T03:00:40;4.07;;;3.70;;
15307;SDS011;7755;52.208;6.964;2023-06-14T03:04:44;3.63;;;3.33;;
15307;SDS011;7755;52.208;6.964;2023-06-14T03:08:51;3.30;;;3.00;;
15307;SDS011;7755;52.208;6.964;2023-06-14T03:12:57;3.30;;;3.10;;
15307;SDS011;7755;52.208;6.964;2023-06-14T03:17:03;3.27;;;3.00;;
15307;SDS011;7755;52.208;6.964;2023-06-14T03:21:09;3.27;;;2.93;;
15307;SDS011;7755;52.208;6.964;2023-06-14T03:25:16;3.97;;;3.63;;
15307;SDS011;7755;52.208;6.964;2023-06-14T03:29:34;3.97;;;3.07;;
15307;SDS011;7755;52.208;6.964;2023-06-14T03:38:10;4.57;;;3.83;;
15307;SDS011;7755;52.208;6.964;2023-06-14T03:42:13;4.83;;;3.23;;
15307;SDS011;7755;52.208;6.964;2023-06-14T03:46:17;3.37;;;3.10;;
15307;SDS011;7755;52.208;6.964;2023-06-14T03:50:20;3.27;;;2.87;;
15307;SDS011;7755;52.208;6.964;2023-06-14T03:54:26;3.60;;;3.10;;
15307;SDS011;7755;52.208;6.964;2023-06-14T03:58:50;3.63;;;3.37;;
15307;SDS011;7755;52.208;6.964;2023-06-14T04:02:56;3.60;;;3.17;;
15307;SDS011;7755;52.208;6.964;2023-06-14T04:11:34;3.10;;;2.80;;
15307;SDS011;7755;52.208;6.964;2023-06-14T04:25:15;4.17;;;3.33;;
15307;SDS011;7755;52.208;6.964;2023-06-14T04:29:26;4.43;;;3.40;;
15307;SDS011;7755;52.208;6.964;2023-06-14T04:33:35;5.33;;;3.10;;
15307;SDS011;7755;52.208;6.964;2023-06-14T04:37:48;3.27;;;2.97;;
15307;SDS011;7755;52.208;6.964;2023-06-14T04:41:53;3.80;;;3.33;;
15307;SDS011;7755;52.208;6.964;2023-06-14T04:46:00;6.63;;;3.60;;
15307;SDS011;7755;52.208;6.964;2023-06-14T04:50:05;3.70;;;3.37;;
15307;SDS011;7755;52.208;6.964;2023-06-14T04:54:08;3.60;;;3.30;;
15307;SDS011;7755;52.208;6.964;2023-06-14T04:58:16;4.33;;;3.33;;
15307;SDS011;7755;52.208;6.964;2023-06-14T05:02:20;4.07;;;3.63;;
15307;SDS011;7755;52.208;6.964;2023-06-14T05:06:24;6.13;;;4.40;;
15307;SDS011;7755;52.208;6.964;2023-06-14T05:10:28;4.20;;;3.83;;
15307;SDS011;7755;52.208;6.964;2023-06-14T05:14:31;5.20;;;3.37;;
15307;SDS011;7755;52.208;6.964;2023-06-14T05:18:36;3.63;;;3.33;;
15307;SDS011;7755;52.208;6.964;2023-06-14T05:22:39;4.33;;;3.63;;
15307;SDS011;7755;52.208;6.964;2023-06-14T05:26:42;3.50;;;3.20;;
15307;SDS011;7755;52.208;6.964;2023-06-14T05:30:45;5.87;;;3.83;;
15307;SDS011;7755;52.208;6.964;2023-06-14T05:34:49;3.90;;;3.47;;
15307;SDS011;7755;52.208;6.964;2023-06-14T05:38:52;4.50;;;3.97;;
15307;SDS011;7755;52.208;6.964;2023-06-14T05:42:59;4.23;;;3.93;;
15307;SDS011;7755;52.208;6.964;2023-06-14T05:47:01;6.27;;;4.00;;
15307;SDS011;7755;52.208;6.964;2023-06-14T05:51:06;4.83;;;4.33;;
15307;SDS011;7755;52.208;6.964;2023-06-14T05:55:10;3.73;;;3.43;;
15307;SDS011;7755;52.208;6.964;2023-06-14T05:59:15;5.23;;;3.10;;
15307;SDS011;7755;52.208;6.964;2023-06-14T06:03:18;4.77;;;3.40;;
15307;SDS011;7755;52.208;6.964;2023-06-14T06:07:24;5.40;;;3.10;;
15307;SDS011;7755;52.208;6.964;2023-06-14T06:11:26;3.10;;;2.90;;
15307;SDS011;7755;52.208;6.964;2023-06-14T06:15:41;4.63;;;2.93;;
15307;SDS011;7755;52.208;6.964;2023-06-14T06:19:44;3.37;;;3.10;;
15307;SDS011;7755;52.208;6.964;2023-06-14T06:23:48;3.20;;;2.90;;
15307;SDS011;7755;52.208;6.964;2023-06-14T06:27:51;3.80;;;3.13;;
15307;SDS011;7755;52.208;6.964;2023-06-14T06:31:54;3.63;;;2.83;;
15307;SDS011;7755;52.208;6.964;2023-06-14T06:35:57;4.00;;;2.60;;
15307;SDS011;7755;52.208;6.964;2023-06-14T06:40:01;3.10;;;2.67;;
15307;SDS011;7755;52.208;6.964;2023-06-14T06:44:07;2.83;;;2.63;;
15307;SDS011;7755;52.208;6.964;2023-06-14T06:48:13;3.00;;;2.60;;
15307;SDS011;7755;52.208;6.964;2023-06-14T06:52:18;4.90;;;2.47;;
15307;SDS011;7755;52.208;6.964;2023-06-14T06:56:22;3.43;;;2.83;;
15307;SDS011;7755;52.208;6.964;2023-06-14T07:00:26;3.97;;;2.70;;
15307;SDS011;7755;52.208;6.964;2023-06-14T07:04:29;2.87;;;2.57;;
15307;SDS011;7755;52.208;6.964;2023-06-14T07:08:32;3.13;;;2.50;;
15307;SDS011;7755;52.208;6.964;2023-06-14T07:12:37;2.33;;;2.13;;
15307;SDS011;7755;52.208;6.964;2023-06-14T07:16:41;2.53;;;2.33;;
15307;SDS011;7755;52.208;6.964;2023-06-14T07:20:45;3.30;;;2.45;;
15307;SDS011;7755;52.208;6.964;2023-06-14T07:24:48;2.90;;;2.37;;
15307;SDS011;7755;52.208;6.964;2023-06-14T07:28:53;2.28;;;2.17;;
15307;SDS011;7755;52.208;6.964;2023-06-14T07:32:56;2.28;;;2.08;;
15307;SDS011;7755;52.208;6.964;2023-06-14T07:36:59;2.30;;;2.10;;
15307;SDS011;7755;52.208;6.964;2023-06-14T07:41:02;2.42;;;2.10;;
15307;SDS011;7755;52.208;6.964;2023-06-14T07:45:07;2.10;;;1.98;;
15307;SDS011;7755;52.208;6.964;2023-06-14T07:49:10;2.00;;;1.90;;
15307;SDS011;7755;52.208;6.964;2023-06-14T07:53:13;2.30;;;2.10;;
15307;SDS011;7755;52.208;6.964;2023-06-14T07:57:16;2.60;;;2.40;;
15307;SDS011;7755;52.208;6.964;2023-06-14T08:01:22;2.15;;;1.98;;
15307;SDS011;7755;52.208;6.964;2023-06-14T08:05:27;2.15;;;2.05;;
15307;SDS011;7755;52.208;6.964;2023-06-14T08:09:30;1.92;;;1.83;;
15307;SDS011;7755;52.208;6.964;2023-06-14T08:13:34;2.58;;;2.00;;
15307;SDS011;7755;52.208;6.964;2023-06-14T08:17:38;1.83;;;1.73;;
15307;SDS011;7755;52.208;6.964;2023-06-14T08:21:41;4.88;;;2.55;;
15307;SDS011;7755;52.208;6.964;2023-06-14T08:25:45;2.95;;;2.00;;
15307;SDS011;7755;52.208;6.964;2023-06-14T08:29:48;2.10;;;2.00;;
15307;SDS011;7755;52.208;6.964;2023-06-14T08:33:52;2.25;;;2.05;;
15307;SDS011;7755;52.208;6.964;2023-06-14T08:37:55;1.90;;;1.80;;
15307;SDS011;7755;52.208;6.964;2023-06-14T08:41:58;2.10;;;1.90;;
15307;SDS011;7755;52.208;6.964;2023-06-14T08:46:04;2.58;;;1.80;;
15307;SDS011;7755;52.208;6.964;2023-06-14T08:50:11;2.22;;;2.03;;
15307;SDS011;7755;52.208;6.964;2023-06-14T08:54:17;2.10;;;2.00;;
15307;SDS011;7755;52.208;6.964;2023-06-14T08:58:22;2.55;;;2.00;;
15307;SDS011;7755;52.208;6.964;2023-06-14T09:02:25;2.45;;;2.08;;
15307;SDS011;7755;52.208;6.964;2023-06-14T09:06:30;2.42;;;2.20;;
15307;SDS011;7755;52.208;6.964;2023-06-14T09:10:33;2.25;;;1.95;;
15307;SDS011;7755;52.208;6.964;2023-06-14T09:14:39;2.20;;;2.05;;
15307;SDS011;7755;52.208;6.964;2023-06-14T09:18:44;2.40;;;2.20;;
15307;SDS011;7755;52.208;6.964;2023-06-14T09:22:53;5.07;;;2.63;;
15307;SDS011;7755;52.208;6.964;2023-06-14T09:26:56;2.58;;;2.38;;
15307;SDS011;7755;52.208;6.964;2023-06-14T09:31:00;2.85;;;2.40;;
15307;SDS011;7755;52.208;6.964;2023-06-14T09:35:03;4.78;;;2.45;;
15307;SDS011;7755;52.208;6.964;2023-06-14T09:39:08;2.13;;;2.00;;
15307;SDS011;7755;52.208;6.964;2023-06-14T09:43:11;2.20;;;2.00;;
15307;SDS011;7755;52.208;6.964;2023-06-14T09:47:15;2.42;;;2.22;;
15307;SDS011;7755;52.208;6.964;2023-06-14T09:51:18;2.20;;;2.00;;
15307;SDS011;7755;52.208;6.964;2023-06-14T09:55:26;4.65;;;2.55;;
15307;SDS011;7755;52.208;6.964;2023-06-14T09:59:30;2.60;;;1.98;;
15307;SDS011;7755;52.208;6.964;2023-06-14T10:03:35;2.15;;;2.05;;
15307;SDS011;7755;52.208;6.964;2023-06-14T10:08:03;2.40;;;2.20;;
15307;SDS011;7755;52.208;6.964;2023-06-14T10:12:10;2.40;;;2.20;;
15307;SDS011;7755;52.208;6.964;2023-06-14T10:16:18;2.05;;;1.90;;
15307;SDS011;7755;52.208;6.964;2023-06-14T10:20:27;1.88;;;1.77;;
15307;SDS011;7755;52.208;6.964;2023-06-14T10:24:37;1.90;;;1.80;;
15307;SDS011;7755;52.208;6.964;2023-06-14T10:28:45;3.00;;;1.67;;
15307;SDS011;7755;52.208;6.964;2023-06-14T10:33:03;1.70;;;1.60;;
15307;SDS011;7755;52.208;6.964;2023-06-14T10:37:10;2.63;;;1.38;;
15307;SDS011;7755;52.208;6.964;2023-06-14T10:41:14;2.45;;;1.67;;
15307;SDS011;7755;52.208;6.964;2023-06-14T10:45:20;1.50;;;1.45;;
15307;SDS011;7755;52.208;6.964;2023-06-14T10:49:36;2.17;;;1.42;;
15307;SDS011;7755;52.208;6.964;2023-06-14T10:53:45;1.70;;;1.60;;
15307;SDS011;7755;52.208;6.964;2023-06-14T10:57:49;1.65;;;1.55;;
15307;SDS011;7755;52.208;6.964;2023-06-14T11:01:58;1.60;;;1.50;;
15307;SDS011;7755;52.208;6.964;2023-06-14T11:06:23;2.10;;;1.52;;
15307;SDS011;7755;52.208;6.964;2023-06-14T11:10:39;3.03;;;2.00;;
15307;SDS011;7755;52.208;6.964;2023-06-14T11:14:45;1.98;;;1.88;;
15307;SDS011;7755;52.208;6.964;2023-06-14T11:18:50;2.17;;;1.77;;
15307;SDS011;7755;52.208;6.964;2023-06-14T11:22:53;1.80;;;1.60;;
15307;SDS011;7755;52.208;6.964;2023-06-14T11:26:56;2.60;;;2.13;;
15307;SDS011;7755;52.208;6.964;2023-06-14T11:31:00;2.00;;;1.90;;
15307;SDS011;7755;52.208;6.964;2023-06-14T11:35:04;1.70;;;1.60;;
15307;SDS011;7755;52.208;6.964;2023-06-14T11:39:09;2.13;;;2.00;;
15307;SDS011;7755;52.208;6.964;2023-06-14T11:43:12;1.77;;;1.63;;
15307;SDS011;7755;52.208;6.964;2023-06-14T11:47:15;2.28;;;1.98;;
15307;SDS011;7755;52.208;6.964;2023-06-14T11:51:20;2.05;;;1.67;;
15307;SDS011;7755;52.208;6.964;2023-06-14T11:55:23;1.80;;;1.70;;
15307;SDS011;7755;52.208;6.964;2023-06-14T11:59:26;1.77;;;1.67;;
15307;SDS011;7755;52.208;6.964;2023-06-14T12:03:29;2.05;;;1.85;;
15307;SDS011;7755;52.208;6.964;2023-06-14T12:07:35;1.90;;;1.70;;
15307;SDS011;7755;52.208;6.964;2023-06-14T12:11:38;2.08;;;1.60;;
15307;SDS011;7755;52.208;6.964;2023-06-14T12:15:41;1.80;;;1.65;;
15307;SDS011;7755;52.208;6.964;2023-06-14T12:19:45;1.90;;;1.80;;
15307;SDS011;7755;52.208;6.964;2023-06-14T12:23:50;3.55;;;1.73;;
15307;SDS011;7755;52.208;6.964;2023-06-14T12:27:53;2.38;;;1.80;;
15307;SDS011;7755;52.208;6.964;2023-06-14T12:31:57;2.17;;;1.80;;
15307;SDS011;7755;52.208;6.964;2023-06-14T12:36:02;1.60;;;1.50;;
15307;SDS011;7755;52.208;6.964;2023-06-14T12:40:09;1.60;;;1.50;;
15307;SDS011;7755;52.208;6.964;2023-06-14T12:44:13;2.15;;;1.40;;
15307;SDS011;7755;52.208;6.964;2023-06-14T12:48:17;2.42;;;1.88;;
15307;SDS011;7755;52.208;6.964;2023-06-14T12:52:20;2.13;;;1.80;;
15307;SDS011;7755;52.208;6.964;2023-06-14T12:56:25;1.80;;;1.70;;
15307;SDS011;7755;52.208;6.964;2023-06-14T13:00:34;3.08;;;1.70;;
15307;SDS011;7755;52.208;6.964;2023-06-14T13:04:38;2.35;;;1.98;;
15307;SDS011;7755;52.208;6.964;2023-06-14T13:08:41;1.80;;;1.70;;
15307;SDS011;7755;52.208;6.964;2023-06-14T13:12:47;2.45;;;1.70;;
15307;SDS011;7755;52.208;6.964;2023-06-14T13:16:50;2.17;;;1.90;;
15307;SDS011;7755;52.208;6.964;2023-06-14T13:20:53;2.50;;;2.17;;
15307;SDS011;7755;52.208;6.964;2023-06-14T13:24:56;2.30;;;1.63;;
15307;SDS011;7755;52.208;6.964;2023-06-14T13:29:00;1.85;;;1.73;;
15307;SDS011;7755;52.208;6.964;2023-06-14T13:33:03;1.50;;;1.45;;
15307;SDS011;7755;52.208;6.964;2023-06-14T13:37:06;3.75;;;1.92;;
15307;SDS011;7755;52.208;6.964;2023-06-14T13:41:09;1.90;;;1.70;;
15307;SDS011;7755;52.208;6.964;2023-06-14T13:45:15;1.88;;;1.77;;
15307;SDS011;7755;52.208;6.964;2023-06-14T13:49:18;2.03;;;1.92;;
15307;SDS011;7755;52.208;6.964;2023-06-14T13:53:22;1.73;;;1.40;;
15307;SDS011;7755;52.208;6.964;2023-06-14T13:57:25;2.05;;;1.63;;
15307;SDS011;7755;52.208;6.964;2023-06-14T14:01:30;1.20;;;1.20;;
15307;SDS011;7755;52.208;6.964;2023-06-14T14:05:33;2.10;;;1.88;;
15307;SDS011;7755;52.208;6.964;2023-06-14T14:09:38;1.58;;;1.48;;
15307;SDS011;7755;52.208;6.964;2023-06-14T14:13:44;3.00;;;1.70;;
15307;SDS011;7755;52.208;6.964;2023-06-14T14:17:50;2.33;;;1.85;;
15307;SDS011;7755;52.208;6.964;2023-06-14T14:21:55;1.98;;;1.75;;
15307;SDS011;7755;52.208;6.964;2023-06-14T14:25:59;1.77;;;1.67;;
15307;SDS011;7755;52.208;6.964;2023-06-14T14:30:06;1.63;;;1.52;;
15307;SDS011;7755;52.208;6.964;2023-06-14T14:34:11;2.15;;;1.40;;
15307;SDS011;7755;52.208;6.964;2023-06-14T14:38:15;1.90;;;1.80;;
15307;SDS011;7755;52.208;6.964;2023-06-14T14:42:18;1.88;;;1.77;;
15307;SDS011;7755;52.208;6.964;2023-06-14T14:46:21;1.80;;;1.70;;
15307;SDS011;7755;52.208;6.964;2023-06-14T14:50:28;2.65;;;1.70;;
15307;SDS011;7755;52.208;6.964;2023-06-14T14:54:31;1.75;;;1.60;;
15307;SDS011;7755;52.208;6.964;2023-06-14T14:58:35;2.08;;;1.88;;
15307;SDS011;7755;52.208;6.964;2023-06-14T15:02:38;1.70;;;1.58;;
15307;SDS011;7755;52.208;6.964;2023-06-14T15:06:48;1.88;;;1.77;;
15307;SDS011;7755;52.208;6.964;2023-06-14T15:10:58;1.77;;;1.65;;
15307;SDS011;7755;52.208;6.964;2023-06-14T15:24:00;1.88;;;1.77;;
15307;SDS011;7755;52.208;6.964;2023-06-14T15:28:03;2.00;;;1.90;;
15307;SDS011;7755;52.208;6.964;2023-06-14T15:32:09;2.63;;;1.80;;
15307;SDS011;7755;52.208;6.964;2023-06-14T15:36:12;4.22;;;2.15;;
15307;SDS011;7755;52.208;6.964;2023-06-14T15:40:18;2.75;;;2.00;;
15307;SDS011;7755;52.208;6.964;2023-06-14T15:44:21;2.13;;;1.85;;
15307;SDS011;7755;52.208;6.964;2023-06-14T15:48:24;1.65;;;1.55;;
15307;SDS011;7755;52.208;6.964;2023-06-14T15:52:27;2.03;;;1.92;;
15307;SDS011;7755;52.208;6.964;2023-06-14T15:56:35;1.92;;;1.50;;
15307;SDS011;7755;52.208;6.964;2023-06-14T16:00:38;2.15;;;1.95;;
15307;SDS011;7755;52.208;6.964;2023-06-14T16:04:41;3.28;;;2.00;;
15307;SDS011;7755;52.208;6.964;2023-06-14T16:08:44;1.83;;;1.73;;
15307;SDS011;7755;52.208;6.964;2023-06-14T16:12:48;2.65;;;1.95;;
15307;SDS011;7755;52.208;6.964;2023-06-14T16:16:53;2.45;;;1.67;;
15307;SDS011;7755;52.208;6.964;2023-06-14T16:20:56;2.28;;;2.13;;
15307;SDS011;7755;52.208;6.964;2023-06-14T16:24:59;2.40;;;2.20;;
15307;SDS011;7755;52.208;6.964;2023-06-14T16:29:04;2.40;;;2.20;;
15307;SDS011;7755;52.208;6.964;2023-06-14T16:33:07;2.33;;;2.03;;
15307;SDS011;7755;52.208;6.964;2023-06-14T16:37:10;4.22;;;2.20;;
15307;SDS011;7755;52.208;6.964;2023-06-14T16:41:14;2.75;;;2.38;;
15307;SDS011;7755;52.208;6.964;2023-06-14T16:45:24;1.80;;;1.70;;
15307;SDS011;7755;52.208;6.964;2023-06-14T16:49:43;3.45;;;2.38;;
15307;SDS011;7755;52.208;6.964;2023-06-14T16:58:16;2.15;;;2.05;;
15307;SDS011;7755;52.208;6.964;2023-06-14T17:02:28;2.67;;;2.30;;
15307;SDS011;7755;52.208;6.964;2023-06-14T17:06:31;2.05;;;1.95;;
15307;SDS011;7755;52.208;6.964;2023-06-14T17:10:45;3.17;;;1.95;;
15307;SDS011;7755;52.208;6.964;2023-06-14T17:14:49;2.50;;;2.30;;
15307;SDS011;7755;52.208;6.964;2023-06-14T17:18:55;2.33;;;2.10;;
15307;SDS011;7755;52.208;6.964;2023-06-14T17:22:59;1.90;;;1.80;;
15307;SDS011;7755;52.208;6.964;2023-06-14T17:27:03;2.08;;;1.98;;
15307;SDS011;7755;52.208;6.964;2023-06-14T17:31:07;2.30;;;2.10;;
15307;SDS011;7755;52.208;6.964;2023-06-14T17:35:12;2.22;;;2.13;;
15307;SDS011;7755;52.208;6.964;2023-06-14T17:39:15;2.40;;;2.20;;
15307;SDS011;7755;52.208;6.964;2023-06-14T17:43:33;2.50;;;2.30;;
15307;SDS011;7755;52.208;6.964;2023-06-14T17:47:37;2.50;;;2.30;;
15307;SDS011;7755;52.208;6.964;2023-06-14T17:51:42;2.85;;;2.65;;
15307;SDS011;7755;52.208;6.964;2023-06-14T17:55:45;2.40;;;2.30;;
15307;SDS011;7755;52.208;6.964;2023-06-14T18:03:57;2.95;;;2.63;;
15307;SDS011;7755;52.208;6.964;2023-06-14T18:12:23;3.35;;;2.10;;
15307;SDS011;7755;52.208;6.964;2023-06-14T18:16:27;3.47;;;3.17;;
15307;SDS011;7755;52.208;6.964;2023-06-14T18:20:32;3.20;;;3.00;;
15307;SDS011;7755;52.208;6.964;2023-06-14T18:24:38;2.63;;;2.53;;
15307;SDS011;7755;52.208;6.964;2023-06-14T18:28:54;2.70;;;2.58;;
15307;SDS011;7755;52.208;6.964;2023-06-14T18:33:11;2.83;;;2.58;;
15307;SDS011;7755;52.208;6.964;2023-06-14T18:37:25;2.63;;;2.42;;
15307;SDS011;7755;52.208;6.964;2023-06-14T18:41:39;3.10;;;2.90;;
15307;SDS011;7755;52.208;6.964;2023-06-14T18:45:43;2.63;;;2.43;;
15307;SDS011;7755;52.208;6.964;2023-06-14T18:49:47;3.28;;;2.97;;
15307;SDS011;7755;52.208;6.964;2023-06-14T18:53:59;2.60;;;2.40;;
15307;SDS011;7755;52.208;6.964;2023-06-14T18:58:06;2.93;;;2.73;;
15307;SDS011;7755;52.208;6.964;2023-06-14T19:02:11;3.13;;;2.93;;
15307;SDS011;7755;52.208;6.964;2023-06-14T19:10:26;3.50;;;3.17;;
15307;SDS011;7755;52.208;6.964;2023-06-14T19:14:36;2.83;;;2.60;;
15307;SDS011;7755;52.208;6.964;2023-06-14T19:18:40;3.17;;;2.90;;
15307;SDS011;7755;52.208;6.964;2023-06-14T19:22:52;3.10;;;2.90;;
15307;SDS011;7755;52.208;6.964;2023-06-14T19:27:07;3.00;;;2.80;;
15307;SDS011;7755;52.208;6.964;2023-06-14T19:31:37;4.53;;;3.20;;
15307;SDS011;7755;52.208;6.964;2023-06-14T19:35:45;4.30;;;3.90;;
15307;SDS011;7755;52.208;6.964;2023-06-14T19:39:48;3.10;;;2.90;;
15307;SDS011;7755;52.208;6.964;2023-06-14T19:43:52;3.20;;;3.00;;
15307;SDS011;7755;52.208;6.964;2023-06-14T19:47:59;3.97;;;3.67;;
15307;SDS011;7755;52.208;6.964;2023-06-14T19:56:46;3.40;;;3.10;;
15307;SDS011;7755;52.208;6.964;2023-06-14T20:00:49;3.80;;;3.10;;
15307;SDS011;7755;52.208;6.964;2023-06-14T20:04:57;3.40;;;3.20;;
15307;SDS011;7755;52.208;6.964;2023-06-14T20:09:00;3.03;;;2.83;;
15307;SDS011;7755;52.208;6.964;2023-06-14T20:13:08;3.50;;;3.00;;
15307;SDS011;7755;52.208;6.964;2023-06-14T20:17:13;3.37;;;3.13;;
15307;SDS011;7755;52.208;6.964;2023-06-14T20:21:19;3.10;;;2.90;;
15307;SDS011;7755;52.208;6.964;2023-06-14T20:25:24;3.53;;;3.30;;
15307;SDS011;7755;52.208;6.964;2023-06-14T20:29:27;3.63;;;3.43;;
15307;SDS011;7755;52.208;6.964;2023-06-14T20:33:34;4.13;;;3.73;;
15307;SDS011;7755;52.208;6.964;2023-06-14T20:37:45;3.70;;;3.40;;
15307;SDS011;7755;52.208;6.964;2023-06-14T20:41:49;3.50;;;3.30;;
15307;SDS011;7755;52.208;6.964;2023-06-14T20:45:53;3.63;;;3.33;;
15307;SDS011;7755;52.208;6.964;2023-06-14T20:50:02;4.00;;;3.70;;
15307;SDS011;7755;52.208;6.964;2023-06-14T20:54:19;4.10;;;3.80;;
15307;SDS011;7755;52.208;6.964;2023-06-14T20:58:26;4.13;;;3.80;;
15307;SDS011;7755;52.208;6.964;2023-06-14T21:02:34;4.20;;;3.90;;
15307;SDS011;7755;52.208;6.964;2023-06-14T21:11:05;6.90;;;6.20;;
15307;SDS011;7755;52.208;6.964;2023-06-14T21:15:09;4.90;;;4.50;;
15307;SDS011;7755;52.208;6.964;2023-06-14T21:19:13;4.87;;;4.40;;
15307;SDS011;7755;52.208;6.964;2023-06-14T21:23:17;4.47;;;4.07;;
15307;SDS011;7755;52.208;6.964;2023-06-14T21:27:22;5.23;;;4.40;;
15307;SDS011;7755;52.208;6.964;2023-06-14T21:31:26;4.53;;;4.13;;
15307;SDS011;7755;52.208;6.964;2023-06-14T21:35:30;5.33;;;3.93;;
15307;SDS011;7755;52.208;6.964;2023-06-14T21:39:34;4.07;;;3.73;;
15307;SDS011;7755;52.208;6.964;2023-06-14T21:43:40;8.73;;;7.93;;
15307;SDS011;7755;52.208;6.964;2023-06-14T21:47:44;7.07;;;6.47;;
15307;SDS011;7755;52.208;6.964;2023-06-14T21:55:55;4.90;;;4.40;;
15307;SDS011;7755;52.208;6.964;2023-06-14T22:00:01;4.33;;;3.93;;
15307;SDS011;7755;52.208;6.964;2023-06-14T22:04:10;4.83;;;4.43;;
15307;SDS011;7755;52.208;6.964;2023-06-14T22:08:14;4.90;;;4.47;;
15307;SDS011;7755;52.208;6.964;2023-06-14T22:12:18;5.07;;;4.37;;
15307;SDS011;7755;52.208;6.964;2023-06-14T22:16:25;4.50;;;4.10;;
15307;SDS011;7755;52.208;6.964;2023-06-14T22:20:29;4.70;;;4.40;;
15307;SDS011;7755;52.208;6.964;2023-06-14T22:24:35;4.60;;;4.30;;
15307;SDS011;7755;52.208;6.964;2023-06-14T22:28:38;4.70;;;4.30;;
15307;SDS011;7755;52.208;6.964;2023-06-14T22:32:48;4.57;;;4.27;;
15307;SDS011;7755;52.208;6.964;2023-06-14T22:36:55;5.47;;;4.93;;
15307;SDS011;7755;52.208;6.964;2023-06-14T22:40:59;5.17;;;4.77;;
15307;SDS011;7755;52.208;6.964;2023-06-14T22:45:02;7.67;;;5.13;;
15307;SDS011;7755;52.208;6.964;2023-06-14T22:49:07;5.23;;;4.90;;
15307;SDS011;7755;52.208;6.964;2023-06-14T22:57:34;6.10;;;5.60;;
15307;SDS011;7755;52.208;6.964;2023-06-14T23:01:38;6.53;;;5.90;;
15307;SDS011;7755;52.208;6.964;2023-06-14T23:05:42;6.83;;;5.27;;
15307;SDS011;7755;52.208;6.964;2023-06-14T23:09:48;5.03;;;4.50;;
15307;SDS011;7755;52.208;6.964;2023-06-14T23:13:51;5.00;;;4.63;;
15307;SDS011;7755;52.208;6.964;2023-06-14T23:17:56;6.33;;;5.37;;
15307;SDS011;7755;52.208;6.964;2023-06-14T23:22:01;6.03;;;5.40;;
15307;SDS011;7755;52.208;6.964;2023-06-14T23:26:05;5.10;;;4.80;;
15307;SDS011;7755;52.208;6.964;2023-06-14T23:30:09;6.00;;;5.40;;
15307;SDS011;7755;52.208;6.964;2023-06-14T23:34:14;6.23;;;5.63;;
15307;SDS011;7755;52.208;6.964;2023-06-14T23:38:20;5.87;;;5.37;;
15307;SDS011;7755;52.208;6.964;2023-06-14T23:42:24;6.07;;;5.47;;
15307;SDS011;7755;52.208;6.964;2023-06-14T23:46:31;5.83;;;5.30;;
15307;SDS011;7755;52.208;6.964;2023-06-14T23:50:34;6.87;;;5.33;;
15307;SDS011;7755;52.208;6.964;2023-06-14T23:54:39;5.67;;;5.20;;
15307;SDS011;7755;52.208;6.964;2023-06-14T23:58:42;6.23;;;5.63;;
